Burleigh, New Jersey
Current Conditions -  °F | °C
As of 3:55 PM on Saturday 22 Nov 2014 (Local Time) from KWWD Reporting Station
Clear Clear  
Wind Chill: 42°   Ceiling: Unl
Heat Index: 46°   Visibility: 10mi
Dew Point: 18°   Wind: 9mph
Humidity: 32%   Direction: 230°SW
Pressure: 30.34"   Gusts: NA
Location:  39.1108°N, 74.8241°W
Report Text: KWWD 222055Z AUTO 23008KT 10SM CLR 08/M08 A3034 RMK AO1 57020
Loading
Personal Weather Stations






























Interactive Weather Map New forecast layout! Learn more

10-Day Weather Forecast

Advertisements
Track Severe Weather on mobile